createdAt,value
2022-08-01T00:00:09.324Z,71.76
2022-08-01T00:02:39.516Z,71.67
2022-08-01T00:05:08.101Z,70.63
2022-08-01T00:07:35.506Z,71.76
2022-08-01T00:10:04.019Z,72.19
2022-08-01T00:12:30.989Z,71.72
2022-08-01T00:14:57.585Z,72.50
2022-08-01T00:17:24.418Z,70.56
2022-08-01T00:19:50.948Z,70.51
2022-08-01T00:22:18.018Z,69.99
2022-08-01T00:24:44.912Z,68.98
2022-08-01T00:27:12.216Z,68.68
2022-08-01T00:30:09.536Z,68.51
2022-08-01T00:32:25.613Z,67.90
2022-08-01T00:34:52.220Z,69.42
2022-08-01T00:37:19.084Z,67.69
2022-08-01T00:39:45.663Z,67.90
2022-08-01T00:42:13.430Z,68.08
2022-08-01T00:44:40.839Z,67.11
2022-08-01T00:47:08.606Z,67.55
2022-08-01T00:49:35.753Z,67.61
2022-08-01T00:52:06.903Z,67.33
2022-08-01T00:54:33.775Z,66.64
2022-08-01T00:57:00.772Z,67.67
2022-08-01T00:59:28.619Z,67.74
2022-08-01T01:01:56.376Z,68.51
2022-08-01T01:04:23.336Z,67.18
2022-08-01T01:07:33.334Z,67.20
2022-08-01T01:10:09.266Z,68.00
2022-08-01T01:12:49.947Z,68.31
2022-08-01T01:15:37.226Z,67.40
2022-08-01T01:18:15.343Z,67.15
2022-08-01T01:20:45.690Z,67.88
2022-08-01T01:23:45.909Z,67.46
2022-08-01T01:26:24.647Z,68.36
2022-08-01T01:29:15.139Z,68.11
2022-08-01T01:31:50.733Z,68.35
2022-08-01T01:34:20.638Z,67.92
2022-08-01T01:36:48.981Z,68.77
2022-08-01T01:39:16.952Z,68.71
2022-08-01T01:41:46.263Z,68.34
2022-08-01T01:44:14.626Z,68.87
2022-08-01T01:46:42.390Z,68.94
2022-08-01T01:49:11.323Z,68.78
2022-08-01T01:51:40.217Z,69.28
2022-08-01T01:54:09.267Z,69.01
2022-08-01T01:56:49.330Z,69.16
2022-08-01T01:59:26.646Z,69.40
2022-08-01T02:02:05.781Z,68.51
2022-08-01T02:04:36.914Z,67.84
2022-08-01T02:07:04.161Z,68.97
2022-08-01T02:09:32.834Z,68.76
2022-08-01T02:12:08.707Z,68.46
2022-08-01T02:14:41.114Z,67.94
2022-08-01T02:17:11.951Z,68.53
2022-08-01T02:19:39.267Z,69.00
2022-08-01T02:22:10.508Z,68.46
2022-08-01T02:24:51.814Z,68.67
2022-08-01T02:27:29.618Z,68.05
2022-08-01T02:30:02.244Z,68.35
2022-08-01T02:32:39.410Z,67.78
2022-08-01T02:35:09.839Z,68.85
2022-08-01T02:37:44.328Z,68.21
2022-08-01T02:40:14.577Z,67.80
2022-08-01T02:42:46.355Z,67.71
2022-08-01T02:45:13.987Z,67.46
2022-08-01T02:47:42.390Z,68.25
2022-08-01T02:50:13.370Z,67.50
2022-08-01T02:52:42.615Z,68.80
2022-08-01T02:55:11.268Z,67.86
2022-08-01T02:57:52.587Z,67.88
2022-08-01T03:00:25.092Z,68.03
2022-08-01T03:02:55.864Z,68.24
2022-08-01T03:05:25.121Z,67.71
2022-08-01T03:07:53.861Z,68.46
2022-08-01T03:10:22.318Z,69.06
2022-08-01T03:12:50.980Z,68.10
2022-08-01T03:15:20.472Z,67.80
2022-08-01T03:17:49.278Z,68.01
2022-08-01T03:20:19.226Z,67.97
2022-08-01T03:22:46.816Z,68.47
2022-08-01T03:25:14.871Z,69.17
2022-08-01T03:27:44.260Z,69.33
2022-08-01T03:30:12.592Z,70.31
2022-08-01T03:32:39.489Z,70.52
2022-08-01T03:35:06.464Z,69.66
2022-08-01T03:38:15.172Z,69.35
2022-08-01T03:40:53.366Z,69.18
2022-08-01T03:43:41.753Z,69.57
2022-08-01T03:46:14.489Z,70.26
2022-08-01T03:48:46.152Z,70.69
2022-08-01T03:51:14.664Z,69.97
2022-08-01T03:53:43.101Z,69.70
2022-08-01T03:56:11.312Z,69.65
2022-08-01T03:58:40.686Z,68.62
2022-08-01T04:01:15.400Z,68.83
2022-08-01T04:03:43.558Z,69.49
2022-08-01T04:06:11.439Z,68.82
2022-08-01T04:08:39.356Z,69.53
2022-08-01T04:11:06.507Z,69.71
2022-08-01T04:13:37.177Z,68.72
2022-08-01T04:16:05.407Z,68.61
2022-08-01T04:18:33.002Z,68.57
2022-08-01T04:20:59.622Z,69.52
2022-08-01T04:23:28.458Z,69.26
2022-08-01T04:25:56.363Z,69.21
2022-08-01T04:28:23.882Z,68.53
2022-08-01T04:30:52.872Z,68.82
2022-08-01T04:33:21.102Z,68.50
2022-08-01T04:36:03.929Z,69.71
2022-08-01T04:38:34.337Z,70.01
2022-08-01T04:41:09.264Z,68.00
2022-08-01T04:43:40.132Z,67.60
2022-08-01T04:46:08.160Z,68.09
2022-08-01T04:48:37.882Z,68.64
2022-08-01T04:51:04.785Z,68.42
2022-08-01T04:53:33.301Z,68.33
2022-08-01T04:55:59.887Z,67.24
2022-08-01T04:58:26.416Z,66.91
2022-08-01T05:00:53.004Z,66.34
2022-08-01T05:03:19.811Z,67.33
2022-08-01T05:05:46.583Z,67.53
2022-08-01T05:08:13.115Z,67.30
2022-08-01T05:10:39.802Z,67.51
2022-08-01T05:13:07.429Z,66.90
2022-08-01T05:15:37.525Z,66.38
2022-08-01T05:18:04.475Z,66.87
2022-08-01T05:20:31.041Z,66.49
2022-08-01T05:22:58.506Z,66.67
2022-08-01T05:25:25.821Z,66.40
2022-08-01T05:28:12.399Z,66.67
2022-08-01T05:30:45.834Z,67.04
2022-08-01T05:33:12.401Z,66.65
2022-08-01T05:35:47.834Z,67.60
2022-08-01T05:38:15.941Z,66.64
2022-08-01T05:40:42.634Z,68.06
2022-08-01T05:43:09.195Z,68.62
2022-08-01T05:45:35.788Z,67.24
2022-08-01T05:48:02.597Z,66.90
2022-08-01T05:50:29.418Z,66.90
2022-08-01T05:52:56.422Z,66.43
2022-08-01T05:55:22.970Z,65.57
2022-08-01T05:57:49.518Z,65.23
2022-08-01T06:00:17.070Z,64.08
2022-08-01T06:02:44.687Z,64.05
2022-08-01T06:05:13.545Z,63.96
2022-08-01T06:07:40.649Z,62.96
2022-08-01T06:10:08.557Z,63.75
2022-08-01T06:12:35.993Z,63.00
2022-08-01T06:15:04.554Z,63.82
2022-08-01T06:17:31.189Z,64.20
2022-08-01T06:19:58.409Z,64.71
2022-08-01T06:22:24.949Z,64.75
2022-08-01T06:24:52.423Z,65.86
2022-08-01T06:27:22.174Z,66.66
2022-08-01T06:29:53.449Z,66.99
2022-08-01T06:32:27.401Z,67.38
2022-08-01T06:34:55.229Z,68.02
2022-08-01T06:37:22.433Z,68.13
2022-08-01T06:39:50.326Z,68.82
2022-08-01T06:42:16.991Z,67.93
2022-08-01T06:44:43.551Z,67.58
2022-08-01T06:47:10.103Z,67.56
2022-08-01T06:49:36.709Z,61.43
2022-08-01T06:52:04.831Z,58.27
2022-08-01T06:54:31.982Z,57.51
2022-08-01T06:56:58.560Z,57.48
2022-08-01T06:59:25.153Z,63.71
2022-08-01T07:01:52.047Z,65.77
2022-08-01T07:04:18.611Z,66.90
2022-08-01T07:06:45.473Z,67.06
2022-08-01T07:09:14.405Z,66.98
2022-08-01T07:11:42.015Z,66.97
2022-08-01T07:14:08.958Z,66.60
2022-08-01T07:16:35.842Z,66.60
2022-08-01T07:19:02.462Z,66.35
2022-08-01T07:21:40.055Z,66.64
2022-08-01T07:24:14.518Z,64.92
2022-08-01T07:26:54.025Z,65.61
2022-08-01T07:29:27.786Z,64.37
2022-08-01T07:41:53.388Z,64.35
2022-08-01T07:44:22.758Z,64.48
2022-08-01T07:46:49.298Z,64.82
2022-08-01T07:49:16.117Z,64.13
2022-08-01T07:51:42.712Z,64.61
2022-08-01T07:54:33.442Z,64.51
2022-08-01T07:57:02.046Z,64.95
2022-08-01T07:59:28.655Z,64.70
2022-08-01T08:01:55.252Z,65.35
2022-08-01T08:04:22.607Z,59.77
2022-08-01T08:06:50.023Z,56.73
2022-08-01T08:09:17.238Z,58.09
2022-08-01T08:11:48.393Z,57.04
2022-08-01T08:14:16.010Z,55.48
2022-08-01T08:16:43.616Z,53.92
2022-08-01T08:19:10.386Z,53.65
2022-08-01T08:21:38.673Z,54.05
2022-08-01T08:24:25.994Z,53.52
2022-08-01T08:26:59.371Z,52.83
2022-08-01T08:29:27.339Z,51.73
2022-08-01T08:31:57.046Z,50.90
2022-08-01T08:34:24.593Z,57.54
2022-08-01T08:36:51.795Z,60.11
2022-08-01T08:39:19.796Z,60.59
2022-08-01T08:41:49.304Z,60.12
2022-08-01T08:44:18.183Z,60.49
2022-08-01T08:46:51.846Z,60.43
2022-08-01T08:49:24.890Z,61.68
2022-08-01T08:51:53.521Z,61.80
2022-08-01T08:54:29.054Z,61.13
2022-08-01T08:56:59.836Z,60.26
2022-08-01T08:59:27.581Z,61.40
2022-08-01T09:01:54.321Z,60.31
2022-08-01T09:04:25.880Z,60.21
2022-08-01T09:06:53.974Z,60.40
2022-08-01T09:09:20.510Z,60.43
2022-08-01T09:11:56.859Z,59.46
2022-08-01T09:14:28.511Z,59.70
2022-08-01T09:17:07.580Z,59.81
2022-08-01T09:19:42.432Z,59.31
2022-08-01T09:22:14.019Z,59.41
2022-08-01T09:24:41.674Z,58.24
2022-08-01T09:27:25.121Z,58.96
2022-08-01T09:30:01.017Z,57.81
2022-08-01T09:32:35.907Z,57.65
2022-08-01T09:35:31.040Z,57.07
2022-08-01T09:38:21.155Z,56.18
2022-08-01T09:40:59.570Z,55.96
2022-08-01T09:43:28.786Z,55.82
2022-08-01T09:45:58.229Z,54.75
2022-08-01T09:48:27.993Z,52.77
2022-08-01T09:51:00.917Z,52.39
2022-08-01T09:53:52.132Z,52.19
2022-08-01T09:56:22.607Z,50.51
2022-08-01T09:58:57.806Z,50.43
2022-08-01T10:01:25.477Z,49.75
2022-08-01T10:04:22.355Z,51.24
2022-08-01T10:06:53.454Z,49.41
2022-08-01T10:09:40.681Z,48.87
2022-08-01T10:12:15.741Z,49.55
2022-08-01T10:14:50.183Z,50.30
2022-08-01T10:17:19.956Z,50.88
2022-08-01T10:19:50.458Z,51.14
2022-08-01T10:22:19.304Z,49.02
2022-08-01T10:24:48.117Z,48.92
2022-08-01T10:27:17.311Z,49.30
2022-08-01T10:30:08.636Z,46.96
2022-08-01T10:32:50.632Z,46.73
2022-08-01T10:35:45.683Z,48.05
2022-08-01T10:38:05.961Z,47.37
2022-08-01T10:40:32.908Z,45.89
2022-08-01T10:42:59.812Z,46.83
2022-08-01T10:45:27.652Z,47.33
2022-08-01T10:48:06.803Z,47.20
2022-08-01T10:50:43.497Z,47.58
2022-08-01T10:53:16.371Z,46.82
2022-08-01T10:55:57.107Z,47.85
2022-08-01T10:58:42.581Z,46.70
2022-08-01T11:01:27.801Z,44.83
2022-08-01T11:04:01.900Z,45.64
2022-08-01T11:06:41.232Z,45.36
2022-08-01T11:09:16.214Z,44.96
2022-08-01T11:12:13.182Z,45.93
2022-08-01T11:15:00.553Z,45.20
2022-08-01T11:17:48.932Z,43.15
2022-08-01T11:20:42.867Z,43.42
2022-08-01T11:23:13.529Z,43.13
2022-08-01T11:26:04.683Z,43.59
2022-08-01T11:28:33.876Z,45.49
2022-08-01T11:31:07.955Z,44.27
2022-08-01T11:33:41.765Z,44.25
2022-08-01T11:36:12.518Z,44.96
2022-08-01T11:39:13.746Z,45.44
2022-08-01T11:41:42.140Z,43.76
2022-08-01T11:44:20.958Z,43.40
2022-08-01T11:47:08.975Z,42.17
2022-08-01T11:49:41.943Z,43.10
2022-08-01T11:52:17.408Z,42.40
2022-08-01T11:54:45.714Z,41.81
2022-08-01T11:57:34.070Z,42.65
2022-08-01T12:00:03.213Z,42.07
2022-08-01T12:02:39.441Z,43.17
2022-08-01T12:05:12.761Z,41.35
2022-08-01T12:07:42.428Z,42.61
2022-08-01T12:10:14.498Z,41.34
2022-08-01T12:13:03.335Z,42.70
2022-08-01T12:15:32.566Z,42.44
2022-08-01T12:18:00.995Z,42.91
2022-08-01T12:20:31.603Z,43.89
2022-08-01T12:23:02.000Z,41.06
2022-08-01T12:25:28.902Z,42.26
2022-08-01T12:27:56.890Z,44.51
2022-08-01T12:30:25.126Z,42.28
2022-08-01T12:32:53.736Z,43.15
2022-08-01T12:35:25.368Z,42.43
2022-08-01T12:37:53.154Z,43.54
2022-08-01T12:40:25.522Z,43.66
2022-08-01T12:42:54.949Z,38.24
2022-08-01T12:45:29.652Z,36.12
2022-08-01T12:47:58.492Z,35.41
2022-08-01T12:50:29.099Z,36.12
2022-08-01T12:52:55.915Z,36.23
2022-08-01T12:55:34.018Z,36.30
2022-08-01T12:58:15.457Z,36.62
2022-08-01T13:00:45.343Z,35.87
2022-08-01T13:03:15.442Z,36.87
2022-08-01T13:05:49.654Z,35.57
2022-08-01T13:08:21.205Z,35.28
2022-08-01T13:10:48.571Z,35.58
2022-08-01T13:13:28.263Z,35.96
2022-08-01T13:16:06.237Z,34.14
2022-08-01T13:18:34.630Z,35.83
2022-08-01T13:21:21.686Z,35.63
2022-08-01T13:24:12.212Z,35.16
2022-08-01T13:26:45.093Z,36.49
2022-08-01T13:29:14.562Z,37.41
2022-08-01T13:31:42.269Z,35.96
2022-08-01T13:34:09.252Z,36.58
2022-08-01T13:36:36.668Z,35.49
2022-08-01T13:39:22.953Z,35.44
2022-08-01T13:41:49.749Z,36.77
2022-08-01T13:44:16.497Z,35.68
2022-08-01T13:46:49.627Z,36.04
2022-08-01T13:49:17.925Z,36.71
2022-08-01T13:51:47.309Z,36.42
2022-08-01T13:54:14.007Z,37.11
2022-08-01T13:56:40.571Z,38.12
2022-08-01T13:59:07.562Z,37.71
2022-08-01T14:01:34.944Z,37.17
2022-08-01T14:04:02.566Z,35.99
2022-08-01T14:06:29.153Z,36.65
2022-08-01T14:08:55.744Z,36.82
2022-08-01T14:11:22.598Z,36.65
2022-08-01T14:13:49.147Z,35.02
2022-08-01T14:16:17.906Z,36.28
2022-08-01T14:18:44.476Z,35.61
2022-08-01T14:21:11.858Z,35.23
2022-08-01T14:23:39.214Z,35.71
2022-08-01T14:26:11.836Z,37.07
2022-08-01T14:28:41.091Z,36.92
2022-08-01T14:31:08.795Z,37.01
2022-08-01T14:33:35.505Z,37.31
2022-08-01T14:36:21.276Z,38.44
2022-08-01T14:38:50.571Z,38.49
2022-08-01T14:41:17.160Z,39.20
2022-08-01T14:43:43.723Z,40.48
2022-08-01T14:46:10.946Z,40.12
2022-08-01T14:48:37.990Z,39.38
2022-08-01T14:51:07.943Z,40.47
2022-08-01T14:53:36.143Z,39.74
2022-08-01T14:56:04.811Z,40.31
2022-08-01T14:58:31.437Z,42.12
2022-08-01T15:00:59.113Z,40.25
2022-08-01T15:03:26.905Z,38.35
2022-08-01T15:05:53.881Z,39.71
2022-08-01T15:08:20.467Z,40.62
2022-08-01T15:10:47.045Z,41.00
2022-08-01T15:13:13.581Z,40.65
2022-08-01T15:15:40.127Z,41.84
2022-08-01T15:18:07.125Z,42.70
2022-08-01T15:20:34.002Z,41.05
2022-08-01T15:23:00.861Z,41.55
2022-08-01T15:25:41.236Z,41.83
2022-08-01T15:28:13.307Z,41.66
2022-08-01T15:30:40.408Z,41.23
2022-08-01T15:33:07.520Z,42.24
2022-08-01T15:35:34.394Z,42.00
2022-08-01T15:38:00.950Z,41.36
2022-08-01T15:40:29.103Z,42.00
2022-08-01T15:42:55.775Z,42.56
2022-08-01T15:45:46.472Z,41.98
2022-08-01T15:48:10.060Z,41.38
2022-08-01T15:50:39.015Z,41.16
2022-08-01T15:53:06.162Z,42.03
2022-08-01T15:55:32.830Z,42.30
2022-08-01T15:57:59.494Z,41.10
2022-08-01T16:00:26.044Z,39.81
2022-08-01T16:03:00.481Z,40.47
2022-08-01T16:05:27.058Z,41.31
2022-08-01T16:07:59.653Z,41.44
2022-08-01T16:10:29.774Z,42.23
2022-08-01T16:12:56.315Z,43.94
2022-08-01T16:15:23.007Z,44.47
2022-08-01T16:18:03.396Z,44.42
2022-08-01T16:20:30.238Z,44.13
2022-08-01T16:22:56.790Z,44.84
2022-08-01T16:25:23.410Z,43.84
2022-08-01T16:27:49.985Z,46.15
2022-08-01T16:30:16.825Z,45.46
2022-08-01T16:32:47.679Z,43.92
2022-08-01T16:35:18.498Z,43.28
2022-08-01T16:37:45.037Z,43.95
2022-08-01T16:40:11.916Z,44.39
2022-08-01T16:42:38.471Z,43.60
2022-08-01T16:45:12.807Z,43.73
2022-08-01T16:47:41.008Z,44.31
2022-08-01T16:50:09.453Z,44.28
2022-08-01T16:52:42.190Z,44.16
2022-08-01T16:55:10.781Z,43.75
2022-08-01T16:57:38.360Z,43.22
2022-08-01T17:00:09.474Z,42.99
2022-08-01T17:02:37.415Z,43.47
2022-08-01T17:05:08.596Z,43.83
2022-08-01T17:07:40.327Z,43.19
2022-08-01T17:10:07.471Z,42.49
2022-08-01T17:12:35.467Z,43.92
2022-08-01T17:15:02.239Z,43.60
2022-08-01T17:17:28.826Z,43.88
2022-08-01T17:19:55.422Z,44.30
2022-08-01T17:22:22.330Z,44.16
2022-08-01T17:24:50.973Z,44.71
2022-08-01T17:27:18.355Z,44.47
2022-08-01T17:29:45.240Z,43.83
2022-08-01T17:32:13.138Z,44.37
2022-08-01T17:34:40.734Z,44.74
2022-08-01T17:37:07.785Z,44.21
2022-08-01T17:39:37.811Z,45.02
2022-08-01T17:42:07.246Z,45.30
2022-08-01T17:44:34.005Z,45.22
2022-08-01T17:47:00.547Z,45.13
2022-08-01T17:49:52.424Z,45.54
2022-08-01T17:52:13.924Z,44.96
2022-08-01T17:54:41.923Z,44.96
2022-08-01T17:57:09.040Z,45.88
2022-08-01T17:59:36.400Z,44.99
2022-08-01T18:02:04.479Z,45.49
2022-08-01T18:04:33.763Z,45.75
2022-08-01T18:07:01.009Z,45.41
2022-08-01T18:09:32.404Z,45.61
2022-08-01T18:11:59.822Z,45.62
2022-08-01T18:14:40.226Z,46.01
2022-08-01T18:17:11.506Z,45.75
2022-08-01T18:19:39.641Z,45.69
2022-08-01T18:22:31.297Z,45.58
2022-08-01T18:24:53.837Z,45.85
2022-08-01T18:27:20.422Z,45.31
2022-08-01T18:29:48.388Z,46.01
2022-08-01T18:32:15.737Z,45.64
2022-08-01T18:34:42.386Z,45.63
2022-08-01T18:37:11.361Z,45.33
2022-08-01T18:39:39.767Z,45.64
2022-08-01T18:42:06.520Z,46.22
2022-08-01T18:44:33.135Z,45.95
2022-08-01T18:47:00.194Z,45.66
2022-08-01T18:49:26.797Z,46.62
2022-08-01T18:51:54.182Z,46.12
2022-08-01T18:54:20.731Z,46.50
2022-08-01T18:56:47.342Z,46.34
2022-08-01T18:59:14.521Z,46.80
2022-08-01T19:01:41.252Z,47.21
2022-08-01T19:04:08.975Z,47.63
2022-08-01T19:06:35.865Z,47.49
2022-08-01T19:09:03.575Z,47.13
2022-08-01T19:11:31.850Z,47.30
2022-08-01T19:14:00.207Z,47.68
2022-08-01T19:16:28.124Z,47.58
2022-08-01T19:18:54.799Z,47.23
2022-08-01T19:21:22.354Z,46.83
2022-08-01T19:24:07.332Z,47.10
2022-08-01T19:26:35.957Z,47.13
2022-08-01T19:29:09.677Z,47.40
2022-08-01T19:31:41.589Z,47.11
2022-08-01T19:34:12.721Z,47.30
2022-08-01T19:36:39.675Z,47.31
2022-08-01T19:39:07.661Z,47.23
2022-08-01T19:41:34.895Z,47.57
2022-08-01T19:44:03.360Z,47.53
2022-08-01T19:46:30.816Z,47.32
2022-08-01T19:48:57.763Z,47.04
2022-08-01T19:51:33.791Z,47.35
2022-08-01T19:54:05.002Z,47.55
2022-08-01T19:56:39.593Z,48.00
2022-08-01T19:59:09.855Z,48.19
2022-08-01T20:01:36.966Z,48.10
2022-08-01T20:04:04.955Z,48.52
2022-08-01T20:06:32.905Z,47.93
2022-08-01T20:08:59.933Z,48.13
2022-08-01T20:11:27.119Z,48.27
2022-08-01T20:13:56.780Z,48.30
2022-08-01T20:16:32.387Z,48.61
2022-08-01T20:18:59.361Z,48.84
2022-08-01T20:21:27.425Z,48.86
2022-08-01T20:24:02.706Z,49.23
2022-08-01T20:26:31.658Z,49.47
2022-08-01T20:29:00.373Z,49.48
2022-08-01T20:31:28.164Z,48.59
2022-08-01T20:34:00.783Z,49.79
2022-08-01T20:36:28.317Z,49.67
2022-08-01T20:38:56.707Z,49.78
2022-08-01T20:41:25.803Z,50.06
2022-08-01T20:43:55.109Z,50.55
2022-08-01T20:46:25.275Z,50.39
2022-08-01T20:48:57.298Z,50.66
2022-08-01T20:51:28.970Z,47.04
2022-08-01T20:53:56.083Z,44.34
2022-08-01T20:56:30.000Z,43.07
2022-08-01T20:59:55.515Z,42.31
2022-08-01T21:02:26.974Z,45.19
2022-08-01T21:05:36.511Z,44.03
2022-08-01T21:08:22.489Z,46.33
2022-08-01T21:10:56.923Z,48.70
2022-08-01T21:13:32.024Z,49.71
2022-08-01T21:16:22.704Z,50.11
2022-08-01T21:19:10.059Z,46.29
2022-08-01T21:21:42.901Z,43.39
2022-08-01T21:24:15.972Z,43.44
2022-08-01T21:26:43.753Z,44.82
2022-08-01T21:29:11.159Z,47.36
2022-08-01T21:31:40.823Z,44.71
2022-08-01T21:34:08.775Z,44.35
2022-08-01T21:36:36.000Z,44.44
2022-08-01T21:39:05.477Z,43.48
2022-08-01T21:41:56.591Z,46.98
2022-08-01T21:44:19.834Z,49.27
2022-08-01T21:46:48.110Z,49.94
2022-08-01T21:49:14.790Z,50.15
2022-08-01T21:51:47.581Z,50.59
2022-08-01T21:54:28.729Z,51.19
2022-08-01T21:57:17.681Z,51.50
2022-08-01T21:59:56.076Z,51.39
2022-08-01T22:02:36.452Z,51.92
2022-08-01T22:05:08.688Z,51.86
2022-08-01T22:07:39.506Z,51.54
2022-08-01T22:10:06.870Z,51.88
2022-08-01T22:12:35.551Z,51.84
2022-08-01T22:15:05.997Z,52.00
2022-08-01T22:17:33.404Z,52.06
2022-08-01T22:20:00.618Z,52.33
2022-08-01T22:22:45.002Z,52.59
2022-08-01T22:25:15.665Z,52.18
2022-08-01T22:28:03.163Z,52.45
2022-08-01T22:30:29.473Z,51.90
2022-08-01T22:33:15.755Z,52.45
2022-08-01T22:35:52.573Z,52.63
2022-08-01T22:38:24.339Z,52.63
2022-08-01T22:41:01.330Z,52.88
2022-08-01T22:43:37.385Z,53.33
2022-08-01T22:46:14.444Z,53.58
2022-08-01T22:48:44.237Z,52.91
2022-08-01T22:51:40.069Z,52.68
2022-08-01T22:54:09.844Z,52.92
2022-08-01T22:56:41.403Z,53.17
2022-08-01T22:59:13.673Z,53.44
2022-08-01T23:01:47.766Z,53.29
2022-08-01T23:04:29.510Z,53.64
2022-08-01T23:07:05.382Z,53.30
2022-08-01T23:09:52.983Z,53.75
2022-08-01T23:12:22.793Z,53.73
2022-08-01T23:14:51.271Z,53.60
2022-08-01T23:17:27.061Z,53.86
2022-08-01T23:20:00.375Z,53.90
2022-08-01T23:22:30.887Z,53.36
2022-08-01T23:25:04.246Z,53.78
2022-08-01T23:27:54.200Z,53.32
2022-08-01T23:30:30.785Z,53.51
2022-08-01T23:32:58.141Z,53.73
2022-08-01T23:35:26.497Z,53.82
2022-08-01T23:37:53.420Z,53.96
2022-08-01T23:40:20.757Z,54.24
2022-08-01T23:42:53.482Z,54.36
2022-08-01T23:45:21.111Z,54.47
2022-08-01T23:47:47.673Z,53.97
2022-08-01T23:50:14.252Z,53.66
2022-08-01T23:52:41.308Z,53.61
2022-08-01T23:55:15.670Z,54.05
2022-08-01T23:57:42.765Z,53.63
